sensor_id;sensor_type;location;lat;lon;timestamp;pressure;altitude;pressure_sealevel;temperature;humidity
64064;BME280;50314;50.618;10.642;2023-02-19T00:01:34;96760.94;;;20.78;20.87
64064;BME280;50314;50.618;10.642;2023-02-19T00:04:05;96751.59;;;20.74;21.05
64064;BME280;50314;50.618;10.642;2023-02-19T00:06:32;96741.06;;;20.73;21.05
64064;BME280;50314;50.618;10.642;2023-02-19T00:08:59;96748.63;;;20.69;21.13
64064;BME280;50314;50.618;10.642;2023-02-19T00:11:27;96748.13;;;20.65;21.20
64064;BME280;50314;50.618;10.642;2023-02-19T00:13:54;96747.50;;;20.63;21.12
64064;BME280;50314;50.618;10.642;2023-02-19T00:16:25;96748.84;;;20.59;21.17
64064;BME280;50314;50.618;10.642;2023-02-19T00:18:51;96750.84;;;20.57;21.13
64064;BME280;50314;50.618;10.642;2023-02-19T00:21:17;96749.53;;;20.53;21.18
64064;BME280;50314;50.618;10.642;2023-02-19T00:23:47;96746.53;;;20.48;21.11
64064;BME280;50314;50.618;10.642;2023-02-19T00:26:13;96735.00;;;20.48;21.25
64064;BME280;50314;50.618;10.642;2023-02-19T00:28:38;96737.19;;;20.44;21.28
64064;BME280;50314;50.618;10.642;2023-02-19T00:31:09;96731.38;;;20.40;21.26
64064;BME280;50314;50.618;10.642;2023-02-19T00:33:36;96726.16;;;20.39;20.99
64064;BME280;50314;50.618;10.642;2023-02-19T00:36:03;96723.84;;;20.36;21.31
64064;BME280;50314;50.618;10.642;2023-02-19T00:38:30;96723.19;;;20.34;21.09
64064;BME280;50314;50.618;10.642;2023-02-19T00:40:57;96717.38;;;20.30;21.16
64064;BME280;50314;50.618;10.642;2023-02-19T00:43:23;96713.19;;;20.28;21.07
64064;BME280;50314;50.618;10.642;2023-02-19T00:45:48;96720.53;;;20.26;21.40
64064;BME280;50314;50.618;10.642;2023-02-19T00:48:14;96706.53;;;20.24;21.41
64064;BME280;50314;50.618;10.642;2023-02-19T00:50:40;96698.84;;;20.21;21.28
64064;BME280;50314;50.618;10.642;2023-02-19T00:53:05;96689.34;;;20.18;21.21
64064;BME280;50314;50.618;10.642;2023-02-19T00:55:30;96677.16;;;20.15;21.11
64064;BME280;50314;50.618;10.642;2023-02-19T00:57:56;96676.50;;;20.13;21.21
64064;BME280;50314;50.618;10.642;2023-02-19T01:00:21;96670.47;;;20.11;21.43
64064;BME280;50314;50.618;10.642;2023-02-19T01:02:47;96675.19;;;20.09;21.05
64064;BME280;50314;50.618;10.642;2023-02-19T01:05:12;96675.53;;;20.06;21.11
64064;BME280;50314;50.618;10.642;2023-02-19T01:07:37;96684.72;;;20.04;21.34
64064;BME280;50314;50.618;10.642;2023-02-19T01:10:03;96681.38;;;20.02;21.15
64064;BME280;50314;50.618;10.642;2023-02-19T01:12:29;96674.53;;;19.99;21.29
64064;BME280;50314;50.618;10.642;2023-02-19T01:14:55;96665.84;;;19.97;21.29
64064;BME280;50314;50.618;10.642;2023-02-19T01:17:21;96674.22;;;19.94;21.26
64064;BME280;50314;50.618;10.642;2023-02-19T01:19:47;96672.91;;;19.90;21.34
64064;BME280;50314;50.618;10.642;2023-02-19T01:22:12;96663.19;;;19.89;21.28
64064;BME280;50314;50.618;10.642;2023-02-19T01:24:38;96653.84;;;19.85;21.14
64064;BME280;50314;50.618;10.642;2023-02-19T01:27:03;96646.84;;;19.84;21.48
64064;BME280;50314;50.618;10.642;2023-02-19T01:29:29;96647.19;;;19.81;21.11
64064;BME280;50314;50.618;10.642;2023-02-19T01:31:54;96650.22;;;19.78;21.62
64064;BME280;50314;50.618;10.642;2023-02-19T01:34:19;96646.03;;;19.75;21.36
64064;BME280;50314;50.618;10.642;2023-02-19T01:36:45;96654.41;;;19.72;21.36
64064;BME280;50314;50.618;10.642;2023-02-19T01:39:10;96645.91;;;19.68;21.59
64064;BME280;50314;50.618;10.642;2023-02-19T01:41:38;96624.72;;;19.67;21.51
64064;BME280;50314;50.618;10.642;2023-02-19T01:46:52;96636.75;;;19.63;21.48
64064;BME280;50314;50.618;10.642;2023-02-19T01:49:29;96631.25;;;19.56;21.45
64064;BME280;50314;50.618;10.642;2023-02-19T01:52:07;96629.94;;;19.52;21.30
64064;BME280;50314;50.618;10.642;2023-02-19T01:54:37;96615.38;;;19.55;21.60
64064;BME280;50314;50.618;10.642;2023-02-19T01:57:07;96625.59;;;19.51;21.32
64064;BME280;50314;50.618;10.642;2023-02-19T01:59:34;96629.28;;;19.50;21.40
64064;BME280;50314;50.618;10.642;2023-02-19T02:02:01;96625.94;;;19.48;21.29
64064;BME280;50314;50.618;10.642;2023-02-19T02:04:29;96632.28;;;19.47;21.43
64064;BME280;50314;50.618;10.642;2023-02-19T02:06:56;96632.47;;;19.45;21.42
64064;BME280;50314;50.618;10.642;2023-02-19T02:09:26;96631.13;;;19.41;21.26
64064;BME280;50314;50.618;10.642;2023-02-19T02:12:10;96635.94;;;19.38;21.77
64064;BME280;50314;50.618;10.642;2023-02-19T02:14:39;96627.28;;;19.36;21.52
64064;BME280;50314;50.618;10.642;2023-02-19T02:28:08;96610.63;;;19.17;21.84
64064;BME280;50314;50.618;10.642;2023-02-19T02:31:07;96601.78;;;19.17;21.45
64064;BME280;50314;50.618;10.642;2023-02-19T02:36:17;96591.63;;;19.12;21.78
64064;BME280;50314;50.618;10.642;2023-02-19T02:38:44;96586.94;;;19.14;21.74
64064;BME280;50314;50.618;10.642;2023-02-19T02:41:12;96598.81;;;19.12;21.51
64064;BME280;50314;50.618;10.642;2023-02-19T02:43:38;96595.28;;;19.11;21.86
64064;BME280;50314;50.618;10.642;2023-02-19T02:46:03;96583.94;;;19.09;21.90
64064;BME280;50314;50.618;10.642;2023-02-19T02:48:35;96588.63;;;19.07;21.90
64064;BME280;50314;50.618;10.642;2023-02-19T02:53:57;96579.97;;;19.05;21.56
64064;BME280;50314;50.618;10.642;2023-02-19T02:56:45;96587.47;;;19.01;21.72
64064;BME280;50314;50.618;10.642;2023-02-19T02:59:13;96584.97;;;19.00;21.71
64064;BME280;50314;50.618;10.642;2023-02-19T03:01:44;96581.66;;;18.98;21.65
64064;BME280;50314;50.618;10.642;2023-02-19T03:07:04;96590.13;;;18.93;21.67
64064;BME280;50314;50.618;10.642;2023-02-19T03:09:36;96590.31;;;18.92;21.51
64064;BME280;50314;50.618;10.642;2023-02-19T03:12:07;96591.97;;;18.93;21.88
64064;BME280;50314;50.618;10.642;2023-02-19T03:14:57;96580.13;;;18.87;22.01
64064;BME280;50314;50.618;10.642;2023-02-19T03:17:46;96578.47;;;18.86;21.66
64064;BME280;50314;50.618;10.642;2023-02-19T03:20:33;96576.00;;;18.85;21.80
64064;BME280;50314;50.618;10.642;2023-02-19T03:23:00;96568.13;;;18.83;22.03
64064;BME280;50314;50.618;10.642;2023-02-19T03:25:31;96576.31;;;18.82;21.96
64064;BME280;50314;50.618;10.642;2023-02-19T03:28:19;96567.66;;;18.80;21.42
64064;BME280;50314;50.618;10.642;2023-02-19T03:31:09;96569.63;;;18.77;22.02
64064;BME280;50314;50.618;10.642;2023-02-19T03:33:37;96551.81;;;18.78;21.55
64064;BME280;50314;50.618;10.642;2023-02-19T03:36:09;96552.78;;;18.77;21.62
64064;BME280;50314;50.618;10.642;2023-02-19T03:38:43;96555.63;;;18.75;22.05
64064;BME280;50314;50.618;10.642;2023-02-19T03:46:50;96550.94;;;18.69;21.70
64064;BME280;50314;50.618;10.642;2023-02-19T03:49:25;96557.63;;;18.65;21.68
64064;BME280;50314;50.618;10.642;2023-02-19T03:52:05;96554.97;;;18.65;21.70
64064;BME280;50314;50.618;10.642;2023-02-19T04:00:24;96552.47;;;18.55;21.70
64064;BME280;50314;50.618;10.642;2023-02-19T04:02:57;96560.28;;;18.57;22.02
64064;BME280;50314;50.618;10.642;2023-02-19T04:05:26;96561.97;;;18.58;21.69
64064;BME280;50314;50.618;10.642;2023-02-19T04:07:57;96559.31;;;18.58;21.67
64064;BME280;50314;50.618;10.642;2023-02-19T04:10:24;96577.28;;;18.56;21.69
64064;BME280;50314;50.618;10.642;2023-02-19T04:12:54;96576.47;;;18.55;22.00
64064;BME280;50314;50.618;10.642;2023-02-19T04:15:25;96565.13;;;18.53;21.70
64064;BME280;50314;50.618;10.642;2023-02-19T04:18:15;96580.13;;;18.46;21.76
64064;BME280;50314;50.618;10.642;2023-02-19T04:20:43;96585.81;;;18.51;22.10
64064;BME280;50314;50.618;10.642;2023-02-19T04:23:10;96580.63;;;18.50;21.70
64064;BME280;50314;50.618;10.642;2023-02-19T04:25:38;96584.28;;;18.49;22.05
64064;BME280;50314;50.618;10.642;2023-02-19T04:28:07;96582.63;;;18.48;21.67
64064;BME280;50314;50.618;10.642;2023-02-19T04:30:33;96586.28;;;18.39;21.82
64064;BME280;50314;50.618;10.642;2023-02-19T04:32:58;96572.44;;;18.43;22.13
64064;BME280;50314;50.618;10.642;2023-02-19T04:35:23;96567.13;;;18.43;21.67
64064;BME280;50314;50.618;10.642;2023-02-19T04:37:49;96577.97;;;18.42;22.16
64064;BME280;50314;50.618;10.642;2023-02-19T04:40:14;96578.97;;;18.41;22.12
64064;BME280;50314;50.618;10.642;2023-02-19T04:42:40;96570.28;;;18.39;22.15
64064;BME280;50314;50.618;10.642;2023-02-19T04:45:05;96572.28;;;18.37;21.70
64064;BME280;50314;50.618;10.642;2023-02-19T04:47:31;96573.28;;;18.36;21.75
64064;BME280;50314;50.618;10.642;2023-02-19T04:49:57;96571.63;;;18.35;22.15
64064;BME280;50314;50.618;10.642;2023-02-19T04:52:22;96579.78;;;18.33;22.25
64064;BME280;50314;50.618;10.642;2023-02-19T04:54:48;96584.28;;;18.33;21.85
64064;BME280;50314;50.618;10.642;2023-02-19T04:57:13;96576.59;;;18.29;22.00
64064;BME280;50314;50.618;10.642;2023-02-19T04:59:39;96574.94;;;18.28;22.16
64064;BME280;50314;50.618;10.642;2023-02-19T05:02:04;96578.63;;;18.27;22.01
64064;BME280;50314;50.618;10.642;2023-02-19T05:04:30;96573.28;;;18.27;22.22
64064;BME280;50314;50.618;10.642;2023-02-19T05:06:55;96583.94;;;18.27;22.17
64064;BME280;50314;50.618;10.642;2023-02-19T05:09:20;96572.44;;;18.27;21.88
64064;BME280;50314;50.618;10.642;2023-02-19T05:11:46;96565.28;;;18.27;21.82
64064;BME280;50314;50.618;10.642;2023-02-19T05:14:11;96565.44;;;18.26;21.90
64064;BME280;50314;50.618;10.642;2023-02-19T05:16:37;96559.28;;;18.25;21.84
64064;BME280;50314;50.618;10.642;2023-02-19T05:19:02;96556.63;;;18.25;22.30
64064;BME280;50314;50.618;10.642;2023-02-19T05:21:28;96558.44;;;18.25;21.88
64064;BME280;50314;50.618;10.642;2023-02-19T05:23:53;96550.59;;;18.23;22.22
64064;BME280;50314;50.618;10.642;2023-02-19T05:26:21;96543.63;;;18.22;21.90
64064;BME280;50314;50.618;10.642;2023-02-19T05:28:49;96547.44;;;18.20;22.01
64064;BME280;50314;50.618;10.642;2023-02-19T05:31:15;96557.13;;;18.21;21.95
64064;BME280;50314;50.618;10.642;2023-02-19T05:33:40;96560.75;;;18.20;21.86
64064;BME280;50314;50.618;10.642;2023-02-19T05:36:10;96567.94;;;18.19;22.23
64064;BME280;50314;50.618;10.642;2023-02-19T05:38:36;96561.78;;;18.19;21.99
64064;BME280;50314;50.618;10.642;2023-02-19T05:41:14;96568.44;;;18.15;22.04
64064;BME280;50314;50.618;10.642;2023-02-19T05:43:41;96574.28;;;18.18;22.25
64064;BME280;50314;50.618;10.642;2023-02-19T05:46:08;96560.25;;;18.16;22.15
64064;BME280;50314;50.618;10.642;2023-02-19T05:48:33;96579.94;;;18.15;22.05
64064;BME280;50314;50.618;10.642;2023-02-19T05:51:04;96567.91;;;18.11;22.25
64064;BME280;50314;50.618;10.642;2023-02-19T05:53:30;96571.25;;;18.13;22.23
64064;BME280;50314;50.618;10.642;2023-02-19T05:55:56;96573.09;;;18.13;22.06
64064;BME280;50314;50.618;10.642;2023-02-19T05:58:21;96573.22;;;18.11;22.24
64064;BME280;50314;50.618;10.642;2023-02-19T06:00:48;96578.56;;;18.11;22.25
64064;BME280;50314;50.618;10.642;2023-02-19T06:03:13;96589.38;;;18.09;22.08
64064;BME280;50314;50.618;10.642;2023-02-19T06:05:39;96591.19;;;18.09;22.08
64064;BME280;50314;50.618;10.642;2023-02-19T06:08:04;96587.72;;;18.08;22.06
64064;BME280;50314;50.618;10.642;2023-02-19T06:10:30;96586.88;;;18.08;21.96
64064;BME280;50314;50.618;10.642;2023-02-19T06:12:55;96599.38;;;18.07;22.15
64064;BME280;50314;50.618;10.642;2023-02-19T06:15:21;96600.34;;;18.06;22.06
64064;BME280;50314;50.618;10.642;2023-02-19T06:17:47;96609.34;;;18.05;22.04
64064;BME280;50314;50.618;10.642;2023-02-19T06:20:12;96608.53;;;18.05;22.28
64064;BME280;50314;50.618;10.642;2023-02-19T06:22:38;96617.53;;;18.04;22.27
64064;BME280;50314;50.618;10.642;2023-02-19T06:25:03;96624.69;;;18.03;22.37
64064;BME280;50314;50.618;10.642;2023-02-19T06:27:30;96634.47;;;18.03;21.98
64064;BME280;50314;50.618;10.642;2023-02-19T06:29:55;96622.16;;;18.02;22.37
64064;BME280;50314;50.618;10.642;2023-02-19T06:32:20;96631.16;;;18.01;22.13
64064;BME280;50314;50.618;10.642;2023-02-19T06:34:46;96641.81;;;18.01;22.37
64064;BME280;50314;50.618;10.642;2023-02-19T06:37:11;96631.16;;;18.01;22.42
64064;BME280;50314;50.618;10.642;2023-02-19T06:39:37;96647.31;;;17.99;22.09
64064;BME280;50314;50.618;10.642;2023-02-19T06:42:02;96646.47;;;17.99;22.16
64064;BME280;50314;50.618;10.642;2023-02-19T06:44:28;96642.16;;;17.98;22.20
64064;BME280;50314;50.618;10.642;2023-02-19T06:46:54;96648.31;;;17.98;22.23
64064;BME280;50314;50.618;10.642;2023-02-19T06:49:20;96647.47;;;17.98;22.48
64064;BME280;50314;50.618;10.642;2023-02-19T06:51:45;96650.28;;;17.96;22.47
64064;BME280;50314;50.618;10.642;2023-02-19T06:54:11;96660.94;;;17.96;22.58
64064;BME280;50314;50.618;10.642;2023-02-19T06:56:38;96664.59;;;17.95;22.48
64064;BME280;50314;50.618;10.642;2023-02-19T06:59:04;96668.22;;;17.86;22.34
64064;BME280;50314;50.618;10.642;2023-02-19T07:01:31;96672.09;;;17.92;22.46
64064;BME280;50314;50.618;10.642;2023-02-19T07:03:57;96673.72;;;17.84;22.36
64064;BME280;50314;50.618;10.642;2023-02-19T07:06:24;96665.09;;;17.91;22.17
64064;BME280;50314;50.618;10.642;2023-02-19T07:08:51;96667.59;;;17.92;22.72
64064;BME280;50314;50.618;10.642;2023-02-19T07:11:17;96671.09;;;17.93;22.81
64064;BME280;50314;50.618;10.642;2023-02-19T07:13:43;96667.78;;;17.91;22.69
64064;BME280;50314;50.618;10.642;2023-02-19T07:16:09;96672.09;;;17.92;22.70
64064;BME280;50314;50.618;10.642;2023-02-19T07:18:36;96679.09;;;17.93;23.09
64064;BME280;50314;50.618;10.642;2023-02-19T07:21:13;96689.41;;;17.88;22.93
64064;BME280;50314;50.618;10.642;2023-02-19T07:23:39;96682.06;;;17.90;23.08
64064;BME280;50314;50.618;10.642;2023-02-19T07:26:11;96695.56;;;17.88;23.25
64064;BME280;50314;50.618;10.642;2023-02-19T07:28:39;96700.72;;;17.90;22.88
64064;BME280;50314;50.618;10.642;2023-02-19T07:31:05;96702.53;;;17.89;23.19
64064;BME280;50314;50.618;10.642;2023-02-19T07:33:31;96705.06;;;17.91;23.33
64064;BME280;50314;50.618;10.642;2023-02-19T07:35:56;96708.72;;;17.90;22.96
64064;BME280;50314;50.618;10.642;2023-02-19T07:38:23;96717.69;;;17.89;23.03
64064;BME280;50314;50.618;10.642;2023-02-19T07:40:56;96726.19;;;17.84;22.99
64064;BME280;50314;50.618;10.642;2023-02-19T07:43:24;96745.34;;;17.88;23.02
64064;BME280;50314;50.618;10.642;2023-02-19T07:45:49;96734.00;;;17.85;23.47
64064;BME280;50314;50.618;10.642;2023-02-19T07:48:16;96734.84;;;17.86;23.29
64064;BME280;50314;50.618;10.642;2023-02-19T07:50:41;96735.84;;;17.85;23.44
64064;BME280;50314;50.618;10.642;2023-02-19T07:53:07;96753.66;;;17.84;23.45
64064;BME280;50314;50.618;10.642;2023-02-19T07:55:33;96763.63;;;17.82;23.21
64064;BME280;50314;50.618;10.642;2023-02-19T07:57:59;96760.13;;;17.82;23.08
64064;BME280;50314;50.618;10.642;2023-02-19T08:00:26;96763.63;;;17.82;23.47
64064;BME280;50314;50.618;10.642;2023-02-19T08:02:52;96775.28;;;17.81;23.20
64064;BME280;50314;50.618;10.642;2023-02-19T08:05:32;96776.72;;;17.76;23.41
64064;BME280;50314;50.618;10.642;2023-02-19T08:07:59;96786.25;;;17.78;23.44
64064;BME280;50314;50.618;10.642;2023-02-19T08:10:25;96783.56;;;17.78;23.25
64064;BME280;50314;50.618;10.642;2023-02-19T08:13:14;96790.22;;;17.74;23.73
64064;BME280;50314;50.618;10.642;2023-02-19T08:15:54;96782.22;;;17.74;23.48
64064;BME280;50314;50.618;10.642;2023-02-19T08:18:25;96790.22;;;17.74;23.73
64064;BME280;50314;50.618;10.642;2023-02-19T08:20:51;96792.56;;;17.77;23.17
64064;BME280;50314;50.618;10.642;2023-02-19T08:23:17;96792.56;;;17.77;23.34
64064;BME280;50314;50.618;10.642;2023-02-19T08:25:45;96800.56;;;17.77;23.49
64064;BME280;50314;50.618;10.642;2023-02-19T08:28:11;96802.22;;;17.78;23.51
64064;BME280;50314;50.618;10.642;2023-02-19T08:30:38;96814.53;;;17.79;23.40
64064;BME280;50314;50.618;10.642;2023-02-19T08:33:05;96817.22;;;17.79;23.52
64064;BME280;50314;50.618;10.642;2023-02-19T08:35:31;96826.19;;;17.78;23.57
64064;BME280;50314;50.618;10.642;2023-02-19T08:37:57;96831.53;;;17.78;23.32
64064;BME280;50314;50.618;10.642;2023-02-19T08:40:26;96847.50;;;17.78;23.72
64064;BME280;50314;50.618;10.642;2023-02-19T08:42:51;96850.19;;;17.78;23.84
64064;BME280;50314;50.618;10.642;2023-02-19T08:45:17;96853.53;;;17.80;23.80
64064;BME280;50314;50.618;10.642;2023-02-19T08:47:43;96847.19;;;17.81;23.85
64064;BME280;50314;50.618;10.642;2023-02-19T08:50:09;96860.34;;;17.83;24.17
64064;BME280;50314;50.618;10.642;2023-02-19T08:52:35;96872.84;;;17.82;23.97
64064;BME280;50314;50.618;10.642;2023-02-19T08:55:01;96868.34;;;17.83;23.94
64064;BME280;50314;50.618;10.642;2023-02-19T08:57:27;96872.84;;;17.82;24.07
64064;BME280;50314;50.618;10.642;2023-02-19T08:59:54;96880.69;;;17.84;24.48
64064;BME280;50314;50.618;10.642;2023-02-19T09:02:22;96868.50;;;17.81;24.13
64064;BME280;50314;50.618;10.642;2023-02-19T09:04:47;96879.00;;;17.83;24.32
64064;BME280;50314;50.618;10.642;2023-02-19T09:07:13;96872.00;;;17.82;24.02
64064;BME280;50314;50.618;10.642;2023-02-19T09:09:39;96879.00;;;17.83;24.04
64064;BME280;50314;50.618;10.642;2023-02-19T09:12:09;96882.66;;;17.82;24.42
64064;BME280;50314;50.618;10.642;2023-02-19T09:14:36;96885.19;;;17.83;24.26
64064;BME280;50314;50.618;10.642;2023-02-19T09:17:03;96886.84;;;17.84;24.26
64064;BME280;50314;50.618;10.642;2023-02-19T09:19:29;96892.19;;;17.84;24.29
64064;BME280;50314;50.618;10.642;2023-02-19T09:21:55;96880.69;;;17.84;24.02
64064;BME280;50314;50.618;10.642;2023-02-19T09:24:21;96877.88;;;17.85;24.09
64064;BME280;50314;50.618;10.642;2023-02-19T09:26:51;96882.53;;;17.83;24.48
64064;BME280;50314;50.618;10.642;2023-02-19T09:29:17;96881.34;;;17.86;23.91
64064;BME280;50314;50.618;10.642;2023-02-19T09:31:42;96882.38;;;17.85;24.08
64064;BME280;50314;50.618;10.642;2023-02-19T09:34:08;96884.03;;;17.86;24.21
64064;BME280;50314;50.618;10.642;2023-02-19T09:36:34;96884.88;;;17.87;24.35
64064;BME280;50314;50.618;10.642;2023-02-19T09:39:00;96888.22;;;17.89;24.36
64064;BME280;50314;50.618;10.642;2023-02-19T09:41:31;96894.38;;;17.89;24.13
64064;BME280;50314;50.618;10.642;2023-02-19T09:44:00;96902.91;;;17.93;24.49
64064;BME280;50314;50.618;10.642;2023-02-19T09:46:30;96899.25;;;17.94;24.18
64064;BME280;50314;50.618;10.642;2023-02-19T09:49:04;96903.28;;;17.98;24.80
64064;BME280;50314;50.618;10.642;2023-02-19T09:51:32;96905.34;;;18.04;24.28
64064;BME280;50314;50.618;10.642;2023-02-19T09:53:59;96908.34;;;18.09;24.35
64064;BME280;50314;50.618;10.642;2023-02-19T09:56:26;96915.94;;;18.14;24.12
64064;BME280;50314;50.618;10.642;2023-02-19T09:58:53;96917.13;;;18.19;24.13
64064;BME280;50314;50.618;10.642;2023-02-19T10:01:22;96912.31;;;18.23;24.39
64064;BME280;50314;50.618;10.642;2023-02-19T10:03:49;96929.53;;;18.28;23.90
64064;BME280;50314;50.618;10.642;2023-02-19T10:06:23;96917.84;;;18.29;24.35
64064;BME280;50314;50.618;10.642;2023-02-19T10:08:55;96927.06;;;18.35;23.96
64064;BME280;50314;50.618;10.642;2023-02-19T10:11:24;96928.41;;;18.39;23.83
64064;BME280;50314;50.618;10.642;2023-02-19T10:14:04;96928.28;;;18.41;23.86
64064;BME280;50314;50.618;10.642;2023-02-19T10:16:33;96938.97;;;18.49;23.91
64064;BME280;50314;50.618;10.642;2023-02-19T10:19:00;96937.78;;;18.43;24.33
64064;BME280;50314;50.618;10.642;2023-02-19T10:21:26;96941.34;;;18.52;24.00
64064;BME280;50314;50.618;10.642;2023-02-19T10:23:54;96945.34;;;18.56;24.15
64064;BME280;50314;50.618;10.642;2023-02-19T10:26:22;96941.38;;;18.60;23.82
64064;BME280;50314;50.618;10.642;2023-02-19T10:28:48;96947.09;;;18.65;23.87
64064;BME280;50314;50.618;10.642;2023-02-19T10:31:23;96962.09;;;18.66;24.39
64064;BME280;50314;50.618;10.642;2023-02-19T10:33:54;96966.78;;;18.72;24.48
64064;BME280;50314;50.618;10.642;2023-02-19T10:36:41;96966.19;;;18.78;24.29
64064;BME280;50314;50.618;10.642;2023-02-19T10:41:50;96966.47;;;19.01;24.57
64064;BME280;50314;50.618;10.642;2023-02-19T10:44:27;96975.34;;;19.10;24.16
64064;BME280;50314;50.618;10.642;2023-02-19T10:46:54;96980.22;;;19.23;24.39
64064;BME280;50314;50.618;10.642;2023-02-19T10:49:31;96984.75;;;19.31;24.21
64064;BME280;50314;50.618;10.642;2023-02-19T10:52:14;96987.50;;;19.39;23.88
64064;BME280;50314;50.618;10.642;2023-02-19T10:54:44;96972.84;;;19.51;23.84
64064;BME280;50314;50.618;10.642;2023-02-19T10:59:59;96990.06;;;19.65;24.11
64064;BME280;50314;50.618;10.642;2023-02-19T11:02:26;96984.25;;;19.78;24.00
64064;BME280;50314;50.618;10.642;2023-02-19T11:05:17;96985.75;;;19.88;24.55
64064;BME280;50314;50.618;10.642;2023-02-19T11:07:47;96989.81;;;20.09;24.72
64064;BME280;50314;50.618;10.642;2023-02-19T11:10:25;96988.31;;;20.23;24.53
64064;BME280;50314;50.618;10.642;2023-02-19T11:12:54;96998.66;;;20.42;24.48
64064;BME280;50314;50.618;10.642;2023-02-19T11:15:21;97002.16;;;20.59;24.36
64064;BME280;50314;50.618;10.642;2023-02-19T11:18:21;97005.38;;;20.71;24.58
64064;BME280;50314;50.618;10.642;2023-02-19T11:20:50;97005.00;;;20.82;24.44
64064;BME280;50314;50.618;10.642;2023-02-19T11:23:23;97020.50;;;21.03;24.45
64064;BME280;50314;50.618;10.642;2023-02-19T11:25:50;97022.34;;;21.19;24.16
64064;BME280;50314;50.618;10.642;2023-02-19T11:28:30;97019.25;;;21.30;24.20
64064;BME280;50314;50.618;10.642;2023-02-19T11:31:21;97017.06;;;21.42;24.04
64064;BME280;50314;50.618;10.642;2023-02-19T11:36:38;97029.44;;;21.74;23.98
64064;BME280;50314;50.618;10.642;2023-02-19T11:44:34;97026.78;;;22.05;23.62
64064;BME280;50314;50.618;10.642;2023-02-19T11:52:46;97025.34;;;22.40;23.13
64064;BME280;50314;50.618;10.642;2023-02-19T12:04:14;97031.06;;;22.75;23.07
64064;BME280;50314;50.618;10.642;2023-02-19T12:15:00;97019.56;;;23.04;22.06
64064;BME280;50314;50.618;10.642;2023-02-19T12:31:37;97037.25;;;23.28;20.63
64064;BME280;50314;50.618;10.642;2023-02-19T12:34:18;97038.06;;;23.29;20.53
64064;BME280;50314;50.618;10.642;2023-02-19T12:37:14;97046.34;;;23.27;20.78
64064;BME280;50314;50.618;10.642;2023-02-19T12:40:20;97026.88;;;23.25;20.67
64064;BME280;50314;50.618;10.642;2023-02-19T12:43:18;97030.59;;;23.24;20.26
64064;BME280;50314;50.618;10.642;2023-02-19T12:51:23;97046.72;;;23.24;20.30
64064;BME280;50314;50.618;10.642;2023-02-19T12:56:33;97048.72;;;23.22;20.73
64064;BME280;50314;50.618;10.642;2023-02-19T12:59:52;97042.53;;;23.21;20.82
64064;BME280;50314;50.618;10.642;2023-02-19T13:07:51;97042.25;;;23.31;20.81
64064;BME280;50314;50.618;10.642;2023-02-19T13:10:47;97056.53;;;23.32;20.75
64064;BME280;50314;50.618;10.642;2023-02-19T13:13:22;97054.28;;;23.35;20.91
64064;BME280;50314;50.618;10.642;2023-02-19T13:15:54;97057.28;;;23.40;20.84
64064;BME280;50314;50.618;10.642;2023-02-19T13:18:29;97066.00;;;23.42;20.85
64064;BME280;50314;50.618;10.642;2023-02-19T13:20:56;97081.38;;;23.49;21.38
64064;BME280;50314;50.618;10.642;2023-02-19T13:31:35;97091.66;;;23.60;20.95
64064;BME280;50314;50.618;10.642;2023-02-19T13:34:13;97085.28;;;23.61;20.86
64064;BME280;50314;50.618;10.642;2023-02-19T13:36:45;97098.34;;;23.64;21.22
64064;BME280;50314;50.618;10.642;2023-02-19T13:39:14;97106.00;;;23.67;20.70
64064;BME280;50314;50.618;10.642;2023-02-19T13:41:47;97106.00;;;23.67;20.19
64064;BME280;50314;50.618;10.642;2023-02-19T13:44:23;97096.50;;;23.64;20.74
64064;BME280;50314;50.618;10.642;2023-02-19T13:46:50;97101.94;;;23.71;20.81
64064;BME280;50314;50.618;10.642;2023-02-19T13:51:55;97122.44;;;23.72;20.67
64064;BME280;50314;50.618;10.642;2023-02-19T13:54:29;97128.09;;;23.77;20.75
64064;BME280;50314;50.618;10.642;2023-02-19T13:57:33;97138.84;;;23.77;20.75
64064;BME280;50314;50.618;10.642;2023-02-19T13:59:59;97137.72;;;23.86;20.37
64064;BME280;50314;50.618;10.642;2023-02-19T14:02:31;97138.38;;;23.88;20.68
64064;BME280;50314;50.618;10.642;2023-02-19T14:05:04;97139.66;;;23.92;20.32
64064;BME280;50314;50.618;10.642;2023-02-19T14:07:49;97140.97;;;23.97;20.78
64064;BME280;50314;50.618;10.642;2023-02-19T14:10:51;97146.34;;;23.97;20.33
64064;BME280;50314;50.618;10.642;2023-02-19T14:19:02;97136.13;;;24.07;20.37
64064;BME280;50314;50.618;10.642;2023-02-19T14:21:36;97152.47;;;24.05;20.45
64064;BME280;50314;50.618;10.642;2023-02-19T14:24:04;97154.59;;;24.10;20.26
64064;BME280;50314;50.618;10.642;2023-02-19T14:26:34;97155.88;;;24.14;20.51
64064;BME280;50314;50.618;10.642;2023-02-19T14:29:00;97163.03;;;24.22;20.17
64064;BME280;50314;50.618;10.642;2023-02-19T14:31:44;97160.59;;;24.27;20.74
64064;BME280;50314;50.618;10.642;2023-02-19T14:34:21;97163.72;;;24.30;20.90
64064;BME280;50314;50.618;10.642;2023-02-19T14:41:50;97155.97;;;24.57;20.39
64064;BME280;50314;50.618;10.642;2023-02-19T14:44:20;97156.69;;;24.66;20.57
64064;BME280;50314;50.618;10.642;2023-02-19T14:47:19;97157.13;;;24.69;20.34
64064;BME280;50314;50.618;10.642;2023-02-19T14:49:55;97157.00;;;24.77;20.27
64064;BME280;50314;50.618;10.642;2023-02-19T14:52:33;97170.97;;;24.88;20.23
64064;BME280;50314;50.618;10.642;2023-02-19T14:55:08;97169.75;;;24.90;19.97
64064;BME280;50314;50.618;10.642;2023-02-19T14:57:40;97170.47;;;24.99;20.27
64064;BME280;50314;50.618;10.642;2023-02-19T15:02:48;97165.41;;;25.11;20.01
64064;BME280;50314;50.618;10.642;2023-02-19T15:05:20;97173.94;;;25.14;19.74
64064;BME280;50314;50.618;10.642;2023-02-19T15:07:46;97158.66;;;25.21;19.71